Time;durP1;ratioP1;P1;durP2;ratioP2;P2;SDS_P1;SDS_P2;PMS_P1;PMS_P2;Temp;Humidity;BMP_temperature;BMP_pressure;BME280_temperature;BME280_humidity;BME280_pressure;Samples;Min_cycle;Max_cycle;Signal;HPM_P1;HPM_P2
2022/07/19 00:00:35;;;;;;;3.05;1.48;;;23.10;60.40;;;;;;5058462;28;20095;-94
2022/07/19 00:03:01;;;;;;;7.25;1.60;;;23.10;60.60;;;;;;5058813;28;20028;-93
2022/07/19 00:05:27;;;;;;;2.30;1.50;;;23.00;60.70;;;;;;5057938;28;20108;-94
2022/07/19 00:07:53;;;;;;;8.52;1.90;;;23.00;60.80;;;;;;5058554;28;20029;-94
2022/07/19 00:10:19;;;;;;;4.55;1.55;;;23.00;61.00;;;;;;5075753;28;20039;-93
2022/07/19 00:12:46;;;;;;;5.68;1.80;;;22.90;61.00;;;;;;5057773;28;20032;-93
2022/07/19 00:15:13;;;;;;;3.22;1.30;;;22.90;60.90;;;;;;5075438;28;20040;-95
2022/07/19 00:17:42;;;;;;;2.67;1.50;;;22.80;61.00;;;;;;5057683;28;20108;-93
2022/07/19 00:20:09;;;;;;;1.80;1.40;;;22.80;61.00;;;;;;5075168;28;20056;-93
2022/07/19 00:22:35;;;;;;;4.65;1.45;;;22.70;60.80;;;;;;5075310;28;20020;-93
2022/07/19 00:25:00;;;;;;;2.17;1.35;;;22.80;60.50;;;;;;5072574;28;20113;-94
2022/07/19 00:27:26;;;;;;;3.85;1.58;;;22.80;60.60;;;;;;5045428;28;20059;-93
2022/07/19 00:29:51;;;;;;;1.70;1.40;;;22.80;60.80;;;;;;5057972;28;20531;-94
2022/07/19 00:32:17;;;;;;;4.72;1.45;;;22.80;60.80;;;;;;5057050;28;20056;-94
2022/07/19 00:34:43;;;;;;;1.58;1.33;;;22.80;60.70;;;;;;5057852;28;20355;-94
2022/07/19 00:37:08;;;;;;;2.13;1.50;;;22.80;60.80;;;;;;5074483;28;20441;-94
2022/07/19 00:39:34;;;;;;;4.32;1.35;;;22.70;61.20;;;;;;5057311;28;20077;-93
2022/07/19 00:42:00;;;;;;;1.48;1.30;;;22.60;61.50;;;;;;5057449;28;20052;-94
2022/07/19 00:44:25;;;;;;;2.08;1.40;;;22.60;61.10;;;;;;5057289;28;20040;-93
2022/07/19 00:46:51;;;;;;;1.65;1.17;;;22.60;61.00;;;;;;5057918;28;20039;-93
2022/07/19 00:49:17;;;;;;;2.67;1.30;;;22.60;61.00;;;;;;5057457;28;20035;-94
2022/07/19 00:51:43;;;;;;;4.15;1.50;;;22.60;61.20;;;;;;5075599;28;20389;-93
2022/07/19 00:54:12;;;;;;;3.13;1.75;;;22.60;61.20;;;;;;5057140;28;20084;-93
2022/07/19 00:56:40;;;;;;;8.25;1.98;;;22.60;61.50;;;;;;5061464;28;20037;-93
2022/07/19 00:59:07;;;;;;;3.28;1.67;;;22.60;61.70;;;;;;5074774;28;20059;-93
2022/07/19 01:01:33;;;;;;;2.78;1.50;;;22.60;62.10;;;;;;5074973;28;20032;-95
2022/07/19 01:03:59;;;;;;;3.63;1.63;;;22.60;62.10;;;;;;5057209;28;20091;-95
2022/07/19 01:06:24;;;;;;;2.58;1.60;;;22.50;61.80;;;;;;5074511;28;20101;-94
2022/07/19 01:08:50;;;;;;;3.05;1.50;;;22.50;61.80;;;;;;5075331;28;20100;-93
2022/07/19 01:11:16;;;;;;;2.97;1.40;;;22.50;62.10;;;;;;5056795;28;20036;-92
2022/07/19 01:13:42;;;;;;;2.67;1.52;;;22.40;62.10;;;;;;5057592;28;20033;-93
2022/07/19 01:16:07;;;;;;;10.25;1.58;;;22.40;61.60;;;;;;5056649;28;20074;-93
2022/07/19 01:18:33;;;;;;;6.65;1.52;;;22.40;61.60;;;;;;5074919;28;20029;-92
2022/07/19 01:21:00;;;;;;;5.35;1.70;;;22.40;61.50;;;;;;5057232;28;20071;-92
2022/07/19 01:23:26;;;;;;;5.50;2.38;;;22.40;61.60;;;;;;5074450;28;20034;-93
2022/07/19 01:25:52;;;;;;;7.65;3.10;;;22.40;61.70;;;;;;5062415;28;20037;-93
2022/07/19 01:28:18;;;;;;;2.72;1.85;;;22.30;61.70;;;;;;5032780;28;20029;-92
2022/07/19 01:30:43;;;;;;;3.22;2.20;;;22.20;62.30;;;;;;5037139;28;20056;-93
2022/07/19 01:33:09;;;;;;;5.82;2.38;;;22.20;62.00;;;;;;5054307;28;20466;-93
2022/07/19 01:35:35;;;;;;;7.55;3.22;;;22.20;62.00;;;;;;5037022;28;20102;-94
2022/07/19 01:38:00;;;;;;;8.82;3.30;;;22.20;62.00;;;;;;5036870;28;20029;-93
2022/07/19 01:40:26;;;;;;;5.78;3.40;;;22.20;61.80;;;;;;5053427;28;20099;-93
2022/07/19 01:42:52;;;;;;;7.60;3.00;;;22.20;62.00;;;;;;5036925;28;20465;-93
2022/07/19 01:45:18;;;;;;;5.28;3.17;;;22.10;62.20;;;;;;5036041;28;20028;-94
2022/07/19 01:47:45;;;;;;;4.55;3.15;;;22.00;62.50;;;;;;5036717;28;20063;-93
2022/07/19 01:50:13;;;;;;;5.63;3.00;;;22.00;62.10;;;;;;5036248;28;20029;-93
2022/07/19 01:52:39;;;;;;;5.95;3.22;;;22.00;61.80;;;;;;5036452;28;20017;-94
2022/07/19 01:55:05;;;;;;;8.30;3.28;;;22.00;62.10;;;;;;5036028;28;20100;-91
2022/07/19 01:57:32;;;;;;;5.32;3.03;;;22.00;62.30;;;;;;5036477;28;20532;-93
2022/07/19 01:59:58;;;;;;;4.93;2.88;;;21.90;62.30;;;;;;5036287;28;20032;-92
2022/07/19 02:02:23;;;;;;;5.53;3.35;;;21.80;62.70;;;;;;5036152;28;20462;-92
2022/07/19 02:04:49;;;;;;;4.57;2.95;;;21.80;63.00;;;;;;5036680;28;20031;-93
2022/07/19 02:07:15;;;;;;;7.05;2.70;;;21.70;63.20;;;;;;5053671;28;20108;-93
2022/07/19 02:09:41;;;;;;;3.25;2.63;;;21.60;63.10;;;;;;5036420;28;20386;-93
2022/07/19 02:12:07;;;;;;;9.18;2.30;;;21.50;63.20;;;;;;5035852;28;20029;-93
2022/07/19 02:14:32;;;;;;;6.43;2.35;;;21.50;63.00;;;;;;5036088;28;20025;-93
2022/07/19 02:16:58;;;;;;;5.97;2.30;;;21.40;63.20;;;;;;5035708;28;20462;-93
2022/07/19 02:19:23;;;;;;;6.00;2.30;;;21.40;63.30;;;;;;5035771;28;20158;-93
2022/07/19 02:21:49;;;;;;;3.33;1.60;;;21.30;63.30;;;;;;5036059;28;20036;-93
2022/07/19 02:24:15;;;;;;;4.43;1.88;;;21.30;63.60;;;;;;5035840;28;20029;-93
2022/07/19 02:26:40;;;;;;;4.10;1.80;;;21.30;63.50;;;;;;5044432;28;20616;-94
2022/07/19 02:29:06;;;;;;;3.50;1.58;;;21.30;63.40;;;;;;5055722;28;20115;-92
2022/07/19 02:31:33;;;;;;;2.65;1.60;;;21.30;63.40;;;;;;5074035;28;20040;-94
2022/07/19 02:33:59;;;;;;;6.20;1.83;;;21.20;63.40;;;;;;5056026;28;20027;-94
2022/07/19 02:36:25;;;;;;;2.22;1.58;;;21.20;63.60;;;;;;5073354;28;20025;-93
2022/07/19 02:38:51;;;;;;;4.60;1.60;;;21.20;63.70;;;;;;5055975;28;20116;-94
2022/07/19 02:41:17;;;;;;;3.40;1.40;;;21.20;63.90;;;;;;5073307;28;20047;-94
2022/07/19 02:43:43;;;;;;;4.55;1.50;;;21.10;63.80;;;;;;5055991;28;20469;-94
2022/07/19 02:46:09;;;;;;;3.30;2.10;;;21.10;63.80;;;;;;5073201;28;20082;-92
2022/07/19 02:48:34;;;;;;;2.58;1.90;;;21.10;63.90;;;;;;5073717;28;20427;-93
2022/07/19 02:51:00;;;;;;;3.47;1.60;;;21.10;63.90;;;;;;5056196;28;20024;-92
2022/07/19 02:53:26;;;;;;;6.95;1.60;;;21.00;64.00;;;;;;5055573;28;20079;-92
2022/07/19 02:55:51;;;;;;;2.90;1.80;;;21.10;64.00;;;;;;5046205;28;20044;-91
2022/07/19 02:58:17;;;;;;;2.95;1.40;;;21.00;64.10;;;;;;5068328;28;20099;-92
2022/07/19 03:00:43;;;;;;;6.30;1.40;;;21.00;64.10;;;;;;5073698;28;20036;-92
2022/07/19 03:05:53;;;;;;;6.13;1.50;;;20.90;64.30;;;;;;5073220;28;20073;-92
2022/07/19 03:08:18;;;;;;;2.53;1.63;;;20.90;64.30;;;;;;5055273;28;20092;-92
2022/07/19 03:10:44;;;;;;;4.43;1.85;;;20.90;64.20;;;;;;5055890;28;20028;-92
2022/07/19 03:13:10;;;;;;;4.32;1.80;;;21.00;64.00;;;;;;5055328;28;20055;-91
2022/07/19 03:15:36;;;;;;;6.38;1.80;;;21.00;64.20;;;;;;5055679;28;20025;-92
2022/07/19 03:18:03;;;;;;;3.90;1.77;;;21.00;64.20;;;;;;5073080;28;20038;-91
2022/07/19 03:20:28;;;;;;;4.70;2.10;;;21.00;64.10;;;;;;5055175;28;20055;-92
2022/07/19 03:22:54;;;;;;;3.72;2.15;;;21.00;64.30;;;;;;5055456;28;20461;-92
2022/07/19 03:25:20;;;;;;;3.55;1.90;;;21.00;64.30;;;;;;5072460;28;20462;-92
2022/07/19 03:27:45;;;;;;;12.23;2.28;;;21.00;64.50;;;;;;5074177;28;20080;-92
2022/07/19 03:30:11;;;;;;;2.97;2.22;;;20.90;64.50;;;;;;5076642;28;20043;-91
2022/07/19 03:32:37;;;;;;;5.00;2.47;;;20.90;64.50;;;;;;5076690;28;20059;-89
2022/07/19 03:35:03;;;;;;;5.90;2.33;;;20.90;64.50;;;;;;5059140;28;20024;-91
2022/07/19 03:37:28;;;;;;;4.45;2.28;;;20.90;64.70;;;;;;5076188;28;20028;-91
2022/07/19 03:39:54;;;;;;;7.97;2.30;;;20.90;64.70;;;;;;5059001;28;20036;-92
2022/07/19 03:42:19;;;;;;;4.53;2.20;;;20.90;64.60;;;;;;5058331;28;20111;-92
2022/07/19 03:44:45;;;;;;;3.63;1.98;;;20.90;64.90;;;;;;5074132;28;20032;-92
2022/07/19 03:47:10;;;;;;;3.72;2.03;;;20.90;65.20;;;;;;5055888;28;20103;-92
2022/07/19 03:49:36;;;;;;;6.30;2.03;;;20.80;65.60;;;;;;5059012;28;20021;-92
2022/07/19 03:52:02;;;;;;;3.88;2.20;;;20.70;66.10;;;;;;5058633;28;20024;-92
2022/07/19 03:54:28;;;;;;;4.07;2.10;;;20.70;66.30;;;;;;5058136;28;20693;-92
2022/07/19 03:56:55;;;;;;;3.92;1.85;;;20.60;66.50;;;;;;5057947;28;20027;-92
2022/07/19 03:59:22;;;;;;;5.38;2.13;;;20.60;66.70;;;;;;5058315;28;20035;-92
2022/07/19 04:01:48;;;;;;;3.95;2.03;;;20.50;67.50;;;;;;5058566;28;20060;-92
2022/07/19 04:04:15;;;;;;;3.42;1.70;;;20.50;67.00;;;;;;5057880;28;20033;-93
2022/07/19 04:06:41;;;;;;;2.92;1.73;;;20.40;67.30;;;;;;5058298;28;20021;-93
2022/07/19 04:09:06;;;;;;;3.85;1.98;;;20.40;67.40;;;;;;5057328;28;20351;-92
2022/07/19 04:11:32;;;;;;;5.57;2.08;;;20.40;67.40;;;;;;5075302;28;20032;-91
2022/07/19 04:13:57;;;;;;;2.75;1.73;;;20.40;67.50;;;;;;5058209;28;20028;-91
2022/07/19 04:16:23;;;;;;;4.25;1.90;;;20.30;67.60;;;;;;5062876;28;20029;-90
2022/07/19 04:18:49;;;;;;;3.05;1.70;;;20.30;67.80;;;;;;5058091;28;20075;-91
2022/07/19 04:21:14;;;;;;;4.93;1.63;;;20.30;67.80;;;;;;5057785;28;20095;-91
2022/07/19 04:23:41;;;;;;;6.82;1.80;;;20.20;67.80;;;;;;5058348;28;20116;-90
2022/07/19 04:26:07;;;;;;;7.38;2.15;;;20.20;68.00;;;;;;5053680;28;20135;-91
2022/07/19 04:28:33;;;;;;;2.83;1.73;;;20.20;67.90;;;;;;5057460;28;20099;-91
2022/07/19 04:30:58;;;;;;;8.38;2.13;;;20.20;68.10;;;;;;5058048;28;20028;-91
2022/07/19 04:33:24;;;;;;;4.90;1.80;;;20.20;68.20;;;;;;5057037;28;20024;-91
2022/07/19 04:35:50;;;;;;;3.25;1.92;;;20.20;68.00;;;;;;5057697;28;20025;-90
2022/07/19 04:38:15;;;;;;;3.67;1.90;;;20.20;68.10;;;;;;5057417;28;20021;-91
2022/07/19 04:40:41;;;;;;;5.55;1.70;;;20.30;68.10;;;;;;5057672;28;20038;-92
2022/07/19 04:43:06;;;;;;;2.20;1.65;;;20.20;68.40;;;;;;5072459;28;20035;-91
2022/07/19 04:45:32;;;;;;;5.13;1.75;;;20.20;68.60;;;;;;5055692;28;20052;-91
2022/07/19 04:47:58;;;;;;;5.13;1.80;;;20.20;68.50;;;;;;5055248;28;20107;-92
2022/07/19 04:50:24;;;;;;;5.13;2.10;;;20.20;68.50;;;;;;5057708;28;20074;-91
2022/07/19 04:52:49;;;;;;;3.88;1.90;;;20.20;68.50;;;;;;5072990;28;20031;-91
2022/07/19 04:55:15;;;;;;;5.65;1.83;;;20.10;68.60;;;;;;5050440;28;20059;-91
2022/07/19 04:57:40;;;;;;;4.35;1.80;;;20.20;68.80;;;;;;5074015;28;20028;-91
2022/07/19 05:00:09;;;;;;;4.05;1.80;;;20.20;68.80;;;;;;5073258;28;20111;-92
2022/07/19 05:02:36;;;;;;;8.52;2.00;;;20.30;68.90;;;;;;5074724;28;20099;-92
2022/07/19 05:05:02;;;;;;;5.78;1.80;;;20.30;68.80;;;;;;5053629;28;20021;-92
2022/07/19 05:07:28;;;;;;;6.10;1.60;;;20.30;68.80;;;;;;5071149;28;20484;-92
2022/07/19 05:09:53;;;;;;;3.42;1.70;;;20.40;68.90;;;;;;5057681;28;20028;-93
2022/07/19 05:12:19;;;;;;;3.75;1.92;;;20.40;68.70;;;;;;5057232;28;20031;-92
2022/07/19 05:14:45;;;;;;;3.15;1.90;;;20.40;68.60;;;;;;5057227;28;20060;-93
2022/07/19 05:17:10;;;;;;;4.90;2.10;;;20.50;68.50;;;;;;5055996;28;20025;-92
2022/07/19 05:19:36;;;;;;;5.57;2.00;;;20.50;68.70;;;;;;5054481;28;20031;-93
2022/07/19 05:22:02;;;;;;;5.78;2.65;;;20.50;68.70;;;;;;5053168;28;20041;-92
2022/07/19 05:24:27;;;;;;;6.75;2.63;;;20.60;68.70;;;;;;5052979;28;20013;-93
2022/07/19 05:26:53;;;;;;;3.22;2.25;;;20.60;68.60;;;;;;5056964;28;20519;-92
2022/07/19 05:29:19;;;;;;;4.40;2.03;;;20.70;68.70;;;;;;5056621;28;20078;-92
2022/07/19 05:31:44;;;;;;;4.53;2.10;;;20.70;68.70;;;;;;5074918;28;20032;-91
2022/07/19 05:34:10;;;;;;;3.88;1.80;;;20.70;68.60;;;;;;5057096;28;20024;-92
2022/07/19 05:36:36;;;;;;;4.32;1.90;;;20.80;68.50;;;;;;5056751;28;20481;-93
2022/07/19 05:39:02;;;;;;;6.57;2.15;;;20.80;68.00;;;;;;5074833;28;20029;-92
2022/07/19 05:41:28;;;;;;;3.83;1.85;;;20.90;68.10;;;;;;5056981;28;20246;-93
2022/07/19 05:43:53;;;;;;;4.63;1.65;;;21.00;68.20;;;;;;5057021;28;20028;-92
2022/07/19 05:46:20;;;;;;;5.57;1.88;;;21.10;68.00;;;;;;5056228;28;20020;-93
2022/07/19 05:48:46;;;;;;;7.07;2.08;;;21.20;68.00;;;;;;5056919;28;20040;-93
2022/07/19 05:51:11;;;;;;;3.10;1.92;;;21.20;68.00;;;;;;5073706;28;20032;-92
2022/07/19 05:53:37;;;;;;;3.83;1.73;;;21.30;67.70;;;;;;5057041;28;20029;-93
2022/07/19 05:56:04;;;;;;;4.13;1.80;;;21.40;67.60;;;;;;5045525;28;20033;-92
2022/07/19 05:58:30;;;;;;;5.88;2.25;;;21.40;67.50;;;;;;5036841;28;20028;-92
2022/07/19 06:03:39;;;;;;;4.55;2.05;;;21.60;67.80;;;;;;5054407;28;20036;-92
2022/07/19 06:06:05;;;;;;;5.07;1.80;;;21.60;67.00;;;;;;5036634;28;20025;-91
2022/07/19 06:08:31;;;;;;;5.65;1.85;;;21.70;66.70;;;;;;5053926;28;20087;-92
2022/07/19 06:10:56;;;;;;;4.53;1.88;;;21.80;66.50;;;;;;5041099;28;20024;-92
2022/07/19 06:13:22;;;;;;;6.40;2.10;;;21.80;66.40;;;;;;5056149;28;20028;-91
2022/07/19 06:15:49;;;;;;;5.40;1.83;;;21.90;66.60;;;;;;5056358;28;20543;-91
2022/07/19 06:18:15;;;;;;;3.75;1.70;;;22.10;65.80;;;;;;5056294;28;20724;-93
2022/07/19 06:20:41;;;;;;;4.55;1.70;;;22.20;65.80;;;;;;5058024;28;20091;-92
2022/07/19 06:23:07;;;;;;;3.35;1.73;;;22.20;65.60;;;;;;5057372;28;20445;-91
2022/07/19 06:25:32;;;;;;;6.40;1.80;;;22.30;65.30;;;;;;5050333;28;20075;-92
2022/07/19 06:27:58;;;;;;;5.60;1.85;;;22.40;64.80;;;;;;5052017;28;20100;-93
2022/07/19 06:30:23;;;;;;;4.82;1.80;;;22.50;64.60;;;;;;5054920;28;20021;-92
2022/07/19 06:32:49;;;;;;;4.45;1.95;;;22.50;64.40;;;;;;5056117;28;20025;-93
2022/07/19 06:35:15;;;;;;;4.03;1.80;;;22.50;64.40;;;;;;5073203;28;20441;-93
2022/07/19 06:37:40;;;;;;;5.70;1.90;;;22.60;64.60;;;;;;5073747;28;20028;-93
2022/07/19 06:40:06;;;;;;;4.88;2.00;;;22.70;64.50;;;;;;5055013;28;20029;-92
2022/07/19 06:42:33;;;;;;;2.70;2.00;;;22.70;64.40;;;;;;5055982;28;20541;-93
2022/07/19 06:45:01;;;;;;;6.97;1.90;;;22.80;64.20;;;;;;5055354;28;20025;-93
2022/07/19 06:47:27;;;;;;;2.72;1.55;;;22.90;64.10;;;;;;5055957;28;20032;-92
2022/07/19 06:49:53;;;;;;;3.72;1.75;;;22.80;64.00;;;;;;5073646;28;20127;-93
2022/07/19 06:52:19;;;;;;;5.82;2.00;;;22.90;64.20;;;;;;5072953;28;20433;-93
2022/07/19 06:54:44;;;;;;;4.93;2.03;;;23.00;63.80;;;;;;5054912;28;20441;-92
2022/07/19 06:57:10;;;;;;;7.65;2.10;;;23.10;63.80;;;;;;5055472;28;20031;-91
2022/07/19 06:59:36;;;;;;;7.10;1.90;;;23.20;63.70;;;;;;5055570;28;20020;-91
2022/07/19 07:02:03;;;;;;;4.60;1.98;;;23.30;63.50;;;;;;5056994;28;20444;-91
2022/07/19 07:04:29;;;;;;;4.30;2.03;;;23.40;63.30;;;;;;5058917;28;20021;-91
2022/07/19 07:06:54;;;;;;;4.72;1.92;;;23.40;63.20;;;;;;5077517;28;20093;-92
2022/07/19 07:09:20;;;;;;;6.30;1.70;;;23.50;62.90;;;;;;5076917;28;20028;-93
2022/07/19 07:11:45;;;;;;;3.97;1.90;;;23.50;62.50;;;;;;5059110;28;20028;-93
2022/07/19 07:14:11;;;;;;;4.72;2.20;;;23.60;62.50;;;;;;5076501;28;20021;-92
2022/07/19 07:16:37;;;;;;;4.05;1.73;;;23.70;62.30;;;;;;5059200;28;20035;-92
2022/07/19 07:19:02;;;;;;;5.95;2.10;;;23.80;62.10;;;;;;5059633;28;20017;-92
2022/07/19 07:21:29;;;;;;;1.83;1.65;;;23.90;61.90;;;;;;5059298;28;20028;-92
2022/07/19 07:23:55;;;;;;;6.53;2.03;;;24.00;61.60;;;;;;5059688;28;20096;-92
2022/07/19 07:26:21;;;;;;;6.28;1.77;;;24.00;62.10;;;;;;5047647;28;20053;-92
2022/07/19 07:28:46;;;;;;;4.45;1.88;;;24.00;61.80;;;;;;5059362;28;20017;-92
2022/07/19 07:31:12;;;;;;;3.15;1.67;;;24.10;61.80;;;;;;5059047;28;20035;-92
2022/07/19 07:33:38;;;;;;;5.60;2.17;;;24.20;61.90;;;;;;5076945;28;20460;-92
2022/07/19 07:36:04;;;;;;;3.70;1.92;;;24.20;64.20;;;;;;5065818;28;20030;-93
2022/07/19 07:38:29;;;;;;;5.07;1.88;;;24.20;64.50;;;;;;5059097;28;20024;-93
2022/07/19 07:40:56;;;;;;;5.00;1.88;;;24.30;65.30;;;;;;5077666;28;20098;-92
2022/07/19 07:43:21;;;;;;;6.90;1.90;;;24.30;65.60;;;;;;5076460;28;20032;-83
2022/07/19 07:45:47;;;;;;;7.47;1.98;;;24.30;65.70;;;;;;5054662;28;20025;-93
2022/07/19 07:48:13;;;;;;;4.93;1.58;;;24.30;65.60;;;;;;5057904;28;20036;-93
2022/07/19 07:50:38;;;;;;;4.40;1.83;;;24.30;65.50;;;;;;5058502;28;20115;-93
2022/07/19 07:53:04;;;;;;;5.13;2.28;;;24.30;65.60;;;;;;5057222;28;20389;-92
2022/07/19 07:55:29;;;;;;;4.40;2.00;;;24.40;65.30;;;;;;5057172;28;20024;-93
2022/07/19 07:57:55;;;;;;;3.10;2.00;;;24.40;65.10;;;;;;5076105;28;20166;-91
2022/07/19 08:00:21;;;;;;;5.00;1.70;;;24.50;64.50;;;;;;5057583;28;20039;-92
2022/07/19 08:02:48;;;;;;;4.32;1.70;;;24.70;64.20;;;;;;5058251;28;20017;-91
2022/07/19 08:05:14;;;;;;;5.65;1.77;;;24.80;64.10;;;;;;5057925;28;20106;-92
2022/07/19 08:07:40;;;;;;;5.57;1.80;;;24.80;64.10;;;;;;5058396;28;20052;-93
2022/07/19 08:10:08;;;;;;;3.15;1.98;;;24.90;64.10;;;;;;5075655;28;20051;-91
2022/07/19 08:12:34;;;;;;;6.03;1.92;;;25.00;63.60;;;;;;5057658;28;20031;-92
2022/07/19 08:15:00;;;;;;;4.00;1.70;;;25.10;64.80;;;;;;5074752;28;20029;-92
2022/07/19 08:17:26;;;;;;;5.00;1.70;;;25.20;64.30;;;;;;5057654;28;20035;-92
2022/07/19 08:19:51;;;;;;;5.22;1.90;;;25.20;63.80;;;;;;5058484;28;20036;-93
2022/07/19 08:22:18;;;;;;;6.75;1.92;;;25.20;63.30;;;;;;5057922;28;20024;-92
2022/07/19 08:24:45;;;;;;;6.70;2.08;;;25.30;62.80;;;;;;5058417;28;20059;-92
2022/07/19 08:27:10;;;;;;;2.78;2.00;;;25.50;60.00;;;;;;5046689;28;20139;-92
2022/07/19 08:29:36;;;;;;;1.92;1.48;;;25.60;59.50;;;;;;5058090;28;20107;-91
2022/07/19 08:32:02;;;;;;;1.58;1.45;;;25.70;57.70;;;;;;5058097;28;20036;-93
2022/07/19 08:34:28;;;;;;;4.95;1.70;;;25.60;56.90;;;;;;5074737;28;20028;-93
2022/07/19 08:36:53;;;;;;;4.22;1.58;;;25.60;57.30;;;;;;5075139;28;20028;-93
2022/07/19 08:39:19;;;;;;;3.35;1.90;;;25.50;57.30;;;;;;5057158;28;20035;-92
2022/07/19 08:41:46;;;;;;;3.42;1.60;;;25.60;56.80;;;;;;5074962;28;20039;-93
2022/07/19 08:44:12;;;;;;;3.05;1.80;;;25.80;56.60;;;;;;5061629;28;20028;-93
2022/07/19 08:46:41;;;;;;;3.70;2.03;;;25.90;56.50;;;;;;5060855;28;20032;-93
2022/07/19 08:49:07;;;;;;;7.35;1.50;;;26.00;55.90;;;;;;5057304;28;20032;-91
2022/07/19 08:51:34;;;;;;;3.80;1.33;;;25.90;55.50;;;;;;5057772;28;20465;-93
2022/07/19 08:54:01;;;;;;;2.60;1.30;;;26.20;54.60;;;;;;5057690;28;20025;-92
2022/07/19 08:59:13;;;;;;;2.33;1.75;;;26.40;54.40;;;;;;5074479;28;20119;-93
2022/07/19 09:01:39;;;;;;;5.18;1.88;;;26.50;54.50;;;;;;5056977;28;20032;-92
2022/07/19 09:04:12;;;;;;;3.30;1.80;;;26.50;54.60;;;;;;5057341;28;20024;-92
2022/07/19 09:06:52;;;;;;;3.90;1.73;;;26.40;54.70;;;;;;5055947;28;20031;-95
2022/07/19 09:09:32;;;;;;;4.65;1.35;;;26.40;53.40;;;;;;5056892;28;20423;-92
2022/07/19 09:12:00;;;;;;;4.03;1.42;;;26.40;53.70;;;;;;5057279;28;20028;-93
2022/07/19 09:14:29;;;;;;;2.42;1.40;;;26.40;53.90;;;;;;5056481;28;20036;-93
2022/07/19 09:17:01;;;;;;;2.30;1.30;;;26.40;53.60;;;;;;5074252;28;20115;-93
2022/07/19 09:19:30;;;;;;;1.58;1.27;;;26.60;53.70;;;;;;5074188;28;20056;-93
2022/07/19 09:22:04;;;;;;;4.47;1.90;;;26.70;53.10;;;;;;5056721;28;20485;-92
2022/07/19 09:24:32;;;;;;;3.90;1.73;;;26.90;52.30;;;;;;5074036;28;20077;-95
2022/07/19 09:27:08;;;;;;;3.85;1.40;;;26.90;52.00;;;;;;5056065;28;20135;-93
2022/07/19 09:29:36;;;;;;;4.30;1.33;;;26.90;51.30;;;;;;5057179;28;20032;-94
2022/07/19 09:32:15;;;;;;;4.05;1.42;;;27.00;52.00;;;;;;5074868;28;20122;-94
2022/07/19 09:34:42;;;;;;;1.90;1.60;;;27.40;51.70;;;;;;5056977;28;20048;-93
2022/07/19 09:37:09;;;;;;;4.35;1.25;;;27.40;51.30;;;;;;5057176;28;20023;-91
2022/07/19 09:39:34;;;;;;;3.35;1.30;;;27.70;51.10;;;;;;5056595;28;20491;-93
2022/07/19 09:42:02;;;;;;;5.32;1.42;;;27.80;51.00;;;;;;5058165;28;20033;-93
2022/07/19 09:44:28;;;;;;;7.38;1.60;;;27.70;50.60;;;;;;5062258;28;20117;-93
2022/07/19 09:46:54;;;;;;;2.30;1.30;;;27.80;50.40;;;;;;5044169;28;20032;-93
2022/07/19 09:49:20;;;;;;;4.22;1.38;;;28.00;49.80;;;;;;5055938;28;20097;-93
2022/07/19 09:51:53;;;;;;;2.92;1.10;;;28.20;49.90;;;;;;5062467;28;20056;-93
2022/07/19 09:54:20;;;;;;;4.80;1.38;;;28.30;49.60;;;;;;5077684;28;20021;-94
2022/07/19 09:56:47;;;;;;;3.50;1.40;;;28.50;48.60;;;;;;5061335;28;20086;-93
2022/07/19 09:59:13;;;;;;;3.42;1.40;;;28.60;48.70;;;;;;5080002;28;20043;-94
2022/07/19 10:01:39;;;;;;;2.63;1.40;;;28.70;48.70;;;;;;5080396;28;20033;-94
2022/07/19 10:04:13;;;;;;;4.35;1.40;;;28.90;48.30;;;;;;5080457;28;20035;-94
2022/07/19 10:06:41;;;;;;;3.30;1.52;;;28.80;48.00;;;;;;5061246;28;20020;-93
2022/07/19 10:09:09;;;;;;;3.42;1.50;;;28.70;48.40;;;;;;5056112;28;20060;-93
2022/07/19 10:11:35;;;;;;;2.80;1.48;;;28.60;48.90;;;;;;5056749;28;20028;-93
2022/07/19 10:14:02;;;;;;;4.05;1.50;;;28.60;49.10;;;;;;5056746;28;20020;-92
2022/07/19 10:16:36;;;;;;;3.90;1.30;;;28.80;47.60;;;;;;5074088;28;20017;-92
2022/07/19 10:19:10;;;;;;;1.27;1.17;;;29.00;47.30;;;;;;5077104;28;20038;-94
2022/07/19 10:21:37;;;;;;;3.13;1.30;;;29.00;47.20;;;;;;5050379;28;20051;-94
2022/07/19 10:24:03;;;;;;;4.13;1.30;;;29.20;47.10;;;;;;5073003;28;20031;-93
2022/07/19 10:26:40;;;;;;;3.17;1.30;;;29.40;46.80;;;;;;5060449;28;20049;-94
2022/07/19 10:29:11;;;;;;;4.20;1.20;;;29.50;45.90;;;;;;5080099;28;20020;-89
2022/07/19 10:31:37;;;;;;;;;;;29.70;45.90;;;;;;5084495;28;20021;-94
2022/07/19 10:34:05;;;;;;;3.47;1.13;;;29.70;45.90;;;;;;5062672;28;19908;-93
2022/07/19 10:36:33;;;;;;;3.95;1.30;;;29.70;46.40;;;;;;5056572;28;20016;-92
2022/07/19 10:39:26;;;;;;;4.55;1.48;;;29.70;46.20;;;;;;5069950;28;20031;-93
2022/07/19 10:42:13;;;;;;;4.35;1.10;;;30.00;45.30;;;;;;5055745;28;20114;-92
2022/07/19 10:44:57;;;;;;;5.15;1.30;;;30.10;44.70;;;;;;5067797;28;20037;-92
2022/07/19 10:47:32;;;;;;;4.10;1.38;;;30.20;44.40;;;;;;5081640;28;20032;-92
2022/07/19 10:50:18;;;;;;;2.92;1.20;;;30.30;44.60;;;;;;5063104;28;20029;-92
2022/07/19 10:52:45;;;;;;;2.10;1.13;;;30.30;43.70;;;;;;5062410;28;20036;-92
2022/07/19 10:55:29;;;;;;;2.10;1.27;;;30.00;44.70;;;;;;5062343;28;20032;-93
2022/07/19 10:57:58;;;;;;;5.90;1.30;;;30.20;44.10;;;;;;5081405;28;20071;-93
2022/07/19 11:00:29;;;;;;;5.93;2.00;;;30.10;43.90;;;;;;5064217;28;20065;-93
2022/07/19 11:03:28;;;;;;;4.20;1.50;;;30.30;44.00;;;;;;5065010;28;20087;-92
2022/07/19 11:05:59;;;;;;;1.75;1.15;;;30.50;43.00;;;;;;5063293;28;20037;-93
2022/07/19 11:08:33;;;;;;;3.08;1.10;;;30.50;43.70;;;;;;5061689;28;20029;-93
2022/07/19 11:11:03;;;;;;;2.75;1.40;;;30.80;42.80;;;;;;5062564;28;20028;-94
2022/07/19 11:13:29;;;;;;;3.30;1.10;;;30.90;42.60;;;;;;5050744;28;20458;-93
2022/07/19 11:15:56;;;;;;;10.00;6.15;;;31.10;42.40;;;;;;5079820;28;20083;-92
2022/07/19 11:18:22;;;;;;;4.35;1.80;;;31.10;42.20;;;;;;5061585;28;20460;-94
2022/07/19 11:20:49;;;;;;;3.05;1.40;;;31.10;42.30;;;;;;5067258;28;20036;-94
2022/07/19 11:23:18;;;;;;;5.30;1.38;;;31.20;42.10;;;;;;5086261;28;20060;-93
2022/07/19 11:25:46;;;;;;;3.50;1.40;;;31.20;42.70;;;;;;5080062;28;20081;-90
2022/07/19 11:28:25;;;;;;;2.47;1.30;;;31.30;42.90;;;;;;5061637;28;20466;-92
2022/07/19 11:30:51;;;;;;;3.58;1.17;;;31.40;43.50;;;;;;5062069;28;20033;-93
2022/07/19 11:33:19;;;;;;;3.65;1.30;;;31.30;42.70;;;;;;5061510;28;20462;-94
2022/07/19 11:35:55;;;;;;;2.30;1.15;;;31.30;42.70;;;;;;5062633;28;20024;-94
2022/07/19 11:38:21;;;;;;;5.50;1.30;;;31.30;41.80;;;;;;5062026;28;20039;-95
2022/07/19 11:40:47;;;;;;;3.85;1.70;;;31.40;42.60;;;;;;5062173;28;20021;-94
2022/07/19 11:43:12;;;;;;;2.60;1.30;;;31.40;42.30;;;;;;5061390;28;20028;-93
2022/07/19 11:45:43;;;;;;;4.50;1.30;;;31.50;42.30;;;;;;5083267;28;20026;-93
2022/07/19 11:48:09;;;;;;;4.07;1.40;;;31.60;41.70;;;;;;5088076;28;20409;-91
2022/07/19 11:50:35;;;;;;;2.42;1.25;;;31.50;42.60;;;;;;5057596;28;20025;-94
2022/07/19 11:53:01;;;;;;;4.10;1.10;;;31.70;41.60;;;;;;5058810;28;20063;-93
2022/07/19 11:55:38;;;;;;;3.92;1.60;;;31.90;41.20;;;;;;5055297;28;20199;-91
2022/07/19 11:58:08;;;;;;;3.22;1.20;;;32.10;40.80;;;;;;5076075;28;20076;-92
2022/07/19 12:00:35;;;;;;;2.65;1.48;;;32.20;40.90;;;;;;5075991;28;20020;-93
2022/07/19 12:03:04;;;;;;;2.05;1.23;;;32.50;40.60;;;;;;5059629;28;20036;-91
2022/07/19 12:05:36;;;;;;;3.75;1.20;;;32.60;40.40;;;;;;5058356;28;20016;-94
2022/07/19 12:08:05;;;;;;;1.80;1.23;;;32.50;40.60;;;;;;5075813;28;20024;-92
2022/07/19 12:10:43;;;;;;;6.82;1.30;;;32.60;40.50;;;;;;5057618;28;20063;-93
2022/07/19 12:13:13;;;;;;;2.75;1.40;;;32.70;40.40;;;;;;5058230;28;20023;-93
2022/07/19 12:15:42;;;;;;;2.75;1.38;;;32.60;40.10;;;;;;5058582;28;20457;-93
2022/07/19 12:18:08;;;;;;;4.22;1.20;;;32.60;40.00;;;;;;5059341;28;20017;-93
2022/07/19 12:20:34;;;;;;;1.85;1.13;;;32.60;40.30;;;;;;5059146;28;20021;-93
2022/07/19 12:23:18;;;;;;;2.65;1.58;;;32.70;39.80;;;;;;5058769;28;20028;-92
2022/07/19 12:25:45;;;;;;;1.70;1.00;;;32.80;39.80;;;;;;5060493;28;20063;-91
2022/07/19 12:28:11;;;;;;;2.17;1.17;;;32.90;39.70;;;;;;5077001;28;20029;-92
2022/07/19 12:30:37;;;;;;;4.47;1.50;;;33.00;39.20;;;;;;5059828;28;20472;-92
2022/07/19 12:33:12;;;;;;;5.97;1.70;;;33.10;39.10;;;;;;5059777;28;20032;-93
2022/07/19 12:35:42;;;;;;;4.80;1.45;;;33.10;39.70;;;;;;5060029;28;20032;-92
2022/07/19 12:38:11;;;;;;;4.32;1.40;;;33.20;38.90;;;;;;5058225;28;20112;-92
2022/07/19 12:40:37;;;;;;;4.68;1.40;;;33.30;39.30;;;;;;5075377;28;20074;-90
2022/07/19 12:43:03;;;;;;;4.97;1.40;;;33.30;39.00;;;;;;5058539;28;20131;-93
2022/07/19 12:45:39;;;;;;;3.85;1.30;;;33.30;39.10;;;;;;5075520;28;20063;-93
2022/07/19 12:48:05;;;;;;;6.25;1.60;;;33.30;39.10;;;;;;5057692;28;20021;-91
2022/07/19 12:50:36;;;;;;;4.38;1.58;;;33.40;38.80;;;;;;5057241;28;20036;-92
2022/07/19 12:53:05;;;;;;;4.32;1.40;;;33.50;38.20;;;;;;5057900;28;20031;-90
2022/07/19 12:55:33;;;;;;;1.48;1.20;;;33.40;38.20;;;;;;5056994;28;20028;-93